Latest Weather Observations for Hopetoun North

IDW60801

Issued at 3:43 pm WST Tuesday 16 August 2022 (issued every 10 minutes, with the page automatically refreshed every 10 minutes)

About weather observations | Map of weather stations | Latest weather observations for WA | Other Formats
Station Details ID: 009961 Name: HOPETOUN NORTH Lat: -33.93 Lon: 120.13 Height: 26.0 m
Data from the previous 72 hours. | See also: Recent months at Hopetoun North
Date/Time
WST
Temp
°C
App
Temp
°C
Dew
Point
°C
Rel
Hum
%
Delta-T
°C
Wind Press
QNH
hPa
Press
MSL
hPa
Rain since
9am
mm
Dir  Spd
km/h
Gust
km/h
Spd
kts
Gust
kts
16/03:30pm 17.3 14.6 11.8 70 3.0 WNW 17 26 9 14 1002.8 1002.8 0.6
16/03:00pm 16.7 15.8 12.7 77 2.2 W 9 20 5 11 1002.2 1002.2 0.6
16/02:30pm 16.2 15.4 13.9 86 1.3 W 11 20 6 11 1002.2 1002.2 0.6
16/02:00pm 16.2 11.6 13.5 84 1.5 WSW 30 46 16 25 1002.1 1002.1 0.4
16/01:53pm 16.8 12.7 12.7 77 2.3 W 26 50 14 27 1001.7 1001.7 0.4
16/01:50pm 18.4 14.9 12.2 67 3.4 W 22 50 12 27 1001.9 1001.9 0.4
16/01:30pm 20.0 18.4 13.9 68 3.5 NW 15 28 8 15 1001.0 1001.0 0.4
16/01:00pm 19.1 19.3 15.8 81 2.0 NW 9 20 5 11 1001.3 1001.3 0.4
16/12:30pm 19.8 19.7 15.0 74 2.8 WNW 9 17 5 9 1001.7 1001.7 0.4
16/12:00pm 19.9 18.1 14.5 71 3.2 WNW 17 30 9 16 1001.6 1001.6 0.4
16/11:30am 20.3 19.3 15.5 74 2.8 W 15 26 8 14 1001.8 1001.8 0.4
16/11:00am 19.8 18.5 15.9 78 2.3 WNW 17 26 9 14 1002.2 1002.2 0.4
16/10:30am 19.3 20.0 17.1 87 1.3 NNW 9 17 5 9 1002.4 1002.4 0.4
16/10:00am 17.8 17.4 16.3 91 0.9 NW 13 28 7 15 1002.3 1002.3 0.4
16/09:30am 18.2 16.7 16.4 89 1.1 NW 19 35 10 19 1002.0 1002.0 0.2
16/09:00am 18.6 16.9 16.2 86 1.4 NW 20 37 11 20 1001.6 1001.6 1.4
16/08:30am 18.9 17.4 16.7 87 1.3 NNW 20 35 11 19 1001.4 1001.4 1.4
16/08:00am 18.6 17.3 16.8 89 1.1 N 19 30 10 16 1001.2 1001.2 1.4
16/07:30am 18.3 16.9 16.5 89 1.1 N 19 28 10 15 1000.6 1000.6 1.4
16/07:00am 18.4 16.8 16.0 86 1.4 N 19 35 10 19 1000.5 1000.5 1.4
16/06:30am 18.3 16.4 15.7 85 1.5 N 20 33 11 18 1000.4 1000.4 1.4
16/06:00am 18.3 14.0 15.4 83 1.7 N 32 46 17 25 999.8 999.8 1.4
16/05:30am 17.8 13.7 14.9 83 1.7 N 30 50 16 27 1000.2 1000.2 1.4
16/05:00am 17.3 12.4 14.4 83 1.7 N 33 54 18 29 1000.2 1000.2 1.4
16/04:32am 17.2 11.0 13.9 81 1.9 NNE 39 57 21 31 999.1 999.1 1.4
16/04:30am 17.2 10.7 13.9 81 1.9 NNE 41 57 22 31 999.1 999.1 1.4
16/04:00am 17.4 10.6 14.3 82 1.8 NNE 43 61 23 33 999.5 999.5 1.4
16/03:51am 17.3 11.8 14.8 85 1.4 NNE 37 61 20 33 1000.3 1000.3 1.4
16/03:48am 17.3 11.8 14.8 85 1.4 NNE 37 54 20 29 1000.0 1000.0 1.4
16/03:30am 16.9 13.1 14.7 87 1.3 N 28 44 15 24 1002.0 1002.0 1.2
16/03:05am 17.7 13.1 14.6 82 1.8 N 32 52 17 28 1002.9 1002.9 1.2
16/03:00am 17.8 13.5 14.5 81 1.9 N 30 43 16 23 1003.0 1003.0 1.2
16/02:34am 18.3 14.3 14.0 76 2.5 N 28 50 15 27 1003.4 1003.4 1.2
16/02:30am 18.3 14.3 14.0 76 2.5 N 28 44 15 24 1003.4 1003.4 1.2
16/02:00am 17.6 13.6 14.1 80 2.0 N 28 41 15 22 1003.4 1003.4 1.2
16/01:30am 17.1 13.1 14.0 82 1.8 NNE 28 39 15 21 1003.7 1003.7 1.2
16/01:00am 16.7 13.9 14.3 86 1.4 N 22 32 12 17 1004.1 1004.1 1.2
16/12:30am 16.4 13.6 14.2 87 1.3 N 22 30 12 16 1004.6 1004.6 0.8
16/12:00am 17.0 14.0 12.7 76 2.4 NNE 20 28 11 15 1005.3 1005.3 0.2
 
Date/Time
WST
Temp
°C
App
Temp
°C
Dew
Point
°C
Rel
Hum
%
Delta-T
°C
Wind Press
QNH
hPa
Press
MSL
hPa
Rain since
9am
mm
Dir  Spd
km/h
Gust
km/h
Spd
kts
Gust
kts
15/11:30pm 17.5 15.0 12.2 71 2.9 NNE 17 24 9 13 1005.6 1005.6 0.0
15/11:00pm 18.9 16.4 12.4 66 3.6 N 17 22 9 12 1006.5 1006.5 0.0
15/10:30pm 20.1 17.8 11.8 59 4.6 NNE 15 19 8 10 1006.5 1006.5 0.0
15/10:00pm 20.3 18.1 12.0 59 4.6 N 15 20 8 11 1007.0 1007.0 0.0
15/09:30pm 20.1 17.7 11.3 57 4.8 N 15 20 8 11 1007.5 1007.5 0.0
15/09:00pm 19.9 16.8 10.3 54 5.2 N 17 22 9 12 1007.8 1007.8 0.0
15/08:30pm 19.6 16.0 9.8 53 5.2 N 19 28 10 15 1008.2 1008.2 0.0
15/08:00pm 17.6 14.9 10.5 63 3.8 NNE 15 19 8 10 1008.6 1008.6 0.0
15/07:30pm 17.4 15.1 10.5 64 3.7 NE 13 15 7 8 1008.6 1008.6 0.0
15/07:00pm 17.9 15.7 10.8 63 3.8 NE 13 17 7 9 1008.6 1008.6 0.0
15/06:30pm 18.0 16.1 10.6 62 4.0 NE 11 15 6 8 1008.5 1008.5 0.0
15/06:00pm 18.6 16.8 10.7 60 4.3 NE 11 15 6 8 1008.5 1008.5 0.0
15/05:30pm 19.5 17.3 10.8 57 4.7 NE 13 17 7 9 1008.1 1008.1 0.0
15/05:00pm 20.9 19.0 10.4 51 5.7 NNE 11 15 6 8 1008.2 1008.2 0.0
15/04:30pm 22.3 18.8 10.1 46 6.6 NNE 19 26 10 14 1008.6 1008.6 0.0
15/04:00pm 23.5 19.7 9.9 42 7.4 NNE 20 30 11 16 1008.7 1008.7 0.0
15/03:30pm 23.6 19.7 9.6 41 7.6 NNE 20 35 11 19 1008.6 1008.6 0.0
15/03:00pm 23.5 19.5 9.1 40 7.8 NNE 20 32 11 17 1009.7 1009.7 0.0
15/02:30pm 23.5 19.8 9.5 41 7.6 NNE 19 28 10 15 1010.4 1010.4 0.0
15/02:00pm 23.4 19.6 9.0 40 7.7 N 19 30 10 16 1011.1 1011.1 0.0
15/01:30pm 23.4 19.4 9.0 40 7.7 N 20 30 11 16 1011.5 1011.5 0.0
15/01:00pm 22.5 19.3 8.6 41 7.4 NNE 15 22 8 12 1012.4 1012.4 0.0
15/12:30pm 21.3 18.0 9.5 47 6.3 NE 17 22 9 12 1013.1 1013.1 0.0
15/12:00pm 20.2 16.6 8.5 47 6.1 NNE 17 24 9 13 1014.3 1014.3 0.0
15/11:30am 19.1 15.3 9.0 52 5.3 NNE 19 28 10 15 1014.9 1014.9 0.0
15/11:00am 18.2 14.0 8.2 52 5.1 NNE 20 28 11 15 1015.3 1015.3 0.0
15/10:30am 17.6 13.6 8.2 54 4.8 NNE 19 30 10 16 1016.1 1016.1 0.0
15/10:00am 15.9 12.0 8.6 62 3.7 NNE 19 24 10 13 1016.7 1016.7 0.0
15/09:30am 14.3 9.7 8.3 67 3.0 NNE 22 30 12 16 1016.9 1016.9 0.0
15/09:00am 12.9 8.4 8.4 74 2.2 NNE 22 32 12 17 1017.2 1017.2 0.0
15/08:30am 10.9 8.0 8.1 83 1.4 NNE 13 17 7 9 1017.8 1017.8 0.0
15/08:00am 8.8 6.1 7.3 90 0.7 NNE 11 15 6 8 1018.1 1018.1 0.0
15/07:30am 6.6 4.0 6.0 96 0.3 NNE 9 11 5 6 1018.0 1018.0 0.0
15/07:00am 5.9 2.7 5.3 96 0.3 NE 11 13 6 7 1018.1 1018.1 0.0
15/06:30am 6.6 3.6 5.9 95 0.3 NNE 11 15 6 8 1018.1 1018.1 0.0
15/06:00am 6.9 3.9 5.8 93 0.5 NNE 11 15 6 8 1018.1 1018.1 0.0
15/05:30am 7.3 4.0 6.2 93 0.5 NNE 13 15 7 8 1017.9 1017.9 0.0
15/05:00am 6.8 4.2 6.1 95 0.3 NNE 9 13 5 7 1018.1 1018.1 0.0
15/04:30am 7.3 4.3 6.1 92 0.5 NNE 11 15 6 8 1018.0 1018.0 0.0
15/04:00am 7.8 4.9 6.6 92 0.6 NNE 11 15 6 8 1018.2 1018.2 0.0
15/03:30am 7.9 5.4 6.4 90 0.7 NNE 9 15 5 8 1018.4 1018.4 0.0
15/03:00am 8.2 5.6 6.2 87 0.9 NNE 9 13 5 7 1018.7 1018.7 0.0
15/02:30am 8.2 5.6 6.0 86 1.0 NNE 9 13 5 7 1018.8 1018.8 0.0
15/02:00am 8.4 5.4 6.2 86 1.0 N 11 17 6 9 1019.0 1019.0 0.0
15/01:30am 8.3 6.1 6.1 86 1.0 NNE 7 11 4 6 1019.4 1019.4 0.0
15/01:00am 8.7 5.7 6.0 83 1.2 NNE 11 13 6 7 1019.6 1019.6 0.0
15/12:30am 8.4 6.1 5.9 84 1.1 NNE 7 13 4 7 1019.6 1019.6 0.0
15/12:00am 8.5 5.9 6.0 84 1.1 N 9 13 5 7 1019.8 1019.8 0.0
 
Date/Time
WST
Temp
°C
App
Temp
°C
Dew
Point
°C
Rel
Hum
%
Delta-T
°C
Wind Press
QNH
hPa
Press
MSL
hPa
Rain since
9am
mm
Dir  Spd
km/h
Gust
km/h
Spd
kts
Gust
kts
14/11:30pm 7.3 5.2 5.6 89 0.8 NNE 6 7 3 4 1019.9 1019.9 0.0
14/11:00pm 7.5 5.4 5.6 88 0.8 NNE 6 9 3 5 1019.9 1019.9 0.0
14/10:30pm 8.2 5.9 5.8 85 1.1 NNE 7 9 4 5 1019.9 1019.9 0.0
14/10:00pm 8.9 6.9 6.3 84 1.2 N 6 9 3 5 1020.2 1020.2 0.0
14/09:30pm 9.8 7.8 6.3 79 1.6 NE 6 7 3 4 1020.1 1020.1 0.0
14/09:00pm 9.9 8.0 6.8 81 1.5 N 6 9 3 5 1020.2 1020.2 0.0
14/08:30pm 10.3 8.6 7.4 82 1.4 NNE 6 7 3 4 1020.0 1020.0 0.0
14/08:00pm 11.2 9.5 7.7 79 1.7 NE 6 7 3 4 1019.7 1019.7 0.0
14/07:30pm 11.4 9.8 7.9 79 1.7 NE 6 6 3 3 1019.4 1019.4 0.0
14/07:00pm 12.5 12.0 8.0 74 2.2 CALM 0 0 0 0 1019.2 1019.2 0.0
14/06:30pm 13.6 13.0 7.6 67 2.9 CALM 0 0 0 0 1018.7 1018.7 0.0
14/06:00pm 13.9 13.3 7.4 65 3.2 CALM 0 0 0 0 1018.9 1018.9 0.0
14/05:30pm 14.4 13.5 7.9 65 3.2 SSE 2 4 1 2 1018.7 1018.7 0.0
14/05:00pm 15.3 13.7 8.1 62 3.6 S 6 7 3 4 1018.3 1018.3 0.0
14/04:30pm 15.8 13.2 7.8 59 4.0 SSW 11 15 6 8 1018.0 1018.0 0.0
14/04:00pm 16.5 13.5 7.7 56 4.4 SSW 13 17 7 9 1017.6 1017.6 0.0
14/03:30pm 17.0 13.6 7.6 54 4.7 S 15 19 8 10 1017.5 1017.5 0.0
14/03:00pm 17.0 13.5 7.1 52 4.9 S 15 20 8 11 1017.6 1017.6 0.0
14/02:30pm 17.1 13.4 6.3 49 5.3 SSW 15 19 8 10 1017.4 1017.4 0.0
14/02:00pm 17.4 14.1 6.3 48 5.4 SSW 13 19 7 10 1017.4 1017.4 0.0
14/01:30pm 17.3 13.7 6.8 50 5.2 SW 15 20 8 11 1017.2 1017.2 0.0
14/01:00pm 16.8 12.3 6.0 49 5.2 SW 19 26 10 14 1017.3 1017.3 0.0
14/12:30pm 16.9 13.4 7.0 52 4.9 SW 15 22 8 12 1017.5 1017.5 0.0
14/12:00pm 16.8 12.8 6.6 51 5.0 WSW 17 26 9 14 1017.6 1017.6 0.0
14/11:30am 16.5 11.9 6.6 52 4.9 WSW 20 30 11 16 1017.8 1017.8 0.0
14/11:00am 16.6 12.5 7.8 56 4.4 WSW 19 26 10 14 1018.0 1018.0 0.0
14/10:30am 16.2 11.9 7.2 55 4.5 WSW 19 28 10 15 1018.1 1018.1 0.0
14/10:00am 15.3 11.0 7.8 61 3.7 W 20 32 11 17 1017.9 1017.9 0.0
14/09:30am 14.4 10.1 7.9 65 3.2 W 20 32 11 17 1017.7 1017.7 0.0
14/09:00am 13.6 10.0 8.2 70 2.7 W 17 28 9 15 1017.2 1017.2 1.8
14/08:30am 12.0 9.1 8.3 78 1.8 WNW 13 20 7 11 1017.1 1017.1 1.8
14/08:00am 10.8 7.1 7.9 82 1.4 WNW 17 26 9 14 1016.7 1016.7 1.8
14/07:30am 10.0 7.0 7.9 87 1.0 WNW 13 19 7 10 1015.8 1015.7 1.8
14/07:00am 9.5 5.8 7.8 89 0.8 WNW 17 24 9 13 1014.9 1014.9 1.8
14/06:30am 9.4 6.0 7.8 90 0.8 WNW 15 22 8 12 1014.6 1014.6 1.8
14/06:00am 9.6 6.7 8.0 90 0.8 WNW 13 20 7 11 1014.2 1014.2 1.8
14/05:30am 9.9 5.9 8.2 89 0.8 WNW 19 24 10 13 1013.4 1013.4 1.8
14/05:00am 10.0 6.4 8.3 89 0.8 WNW 17 22 9 12 1012.9 1012.9 1.8
14/04:30am 10.4 7.2 8.5 88 0.9 WNW 15 22 8 12 1012.2 1012.2 1.8
14/04:00am 10.4 7.2 8.5 88 0.9 WNW 15 20 8 11 1011.9 1011.9 1.8
14/03:30am 10.8 7.6 8.6 86 1.1 WNW 15 28 8 15 1011.6 1011.6 1.8
14/03:00am 10.9 7.8 8.7 86 1.1 WNW 15 24 8 13 1011.3 1011.3 1.8
14/02:30am 11.1 7.6 8.7 85 1.2 WNW 17 28 9 15 1011.1 1011.1 1.8
14/02:00am 11.2 8.1 8.8 85 1.2 WNW 15 26 8 14 1011.1 1011.1 1.8
14/01:30am 11.6 8.2 9.0 84 1.3 NW 17 35 9 19 1010.9 1010.9 1.8
14/01:00am 12.0 9.4 9.2 83 1.4 NW 13 22 7 12 1010.5 1010.5 1.8
14/12:30am 12.2 10.1 9.6 84 1.3 WNW 11 19 6 10 1010.3 1010.3 1.8
14/12:00am 12.3 10.2 9.7 84 1.3 NW 11 26 6 14 1010.0 1010.0 1.8
 
Date/Time
WST
Temp
°C
App
Temp
°C
Dew
Point
°C
Rel
Hum
%
Delta-T
°C
Wind Press
QNH
hPa
Press
MSL
hPa
Rain since
9am
mm
Dir  Spd
km/h
Gust
km/h
Spd
kts
Gust
kts
13/11:30pm 12.9 10.8 11.0 88 1.0 NNW 13 19 7 10 1009.7 1009.7 1.8
13/11:00pm 13.4 12.2 11.5 88 1.0 NNW 9 15 5 8 1009.4 1009.4 1.8
13/10:30pm 13.5 11.2 11.9 90 0.9 NNW 15 24 8 13 1008.9 1008.9 1.8
13/10:00pm 13.6 11.9 12.3 92 0.7 NNW 13 20 7 11 1009.0 1009.0 1.8
13/09:30pm 13.6 11.2 12.5 93 0.6 NNW 17 30 9 16 1008.6 1008.6 1.8
13/09:00pm 13.6 10.7 12.3 92 0.7 N 19 30 10 16 1008.4 1008.4 1.8
13/08:30pm 14.0 10.4 12.0 88 1.1 N 22 33 12 18 1008.4 1008.4 1.6
13/08:00pm 13.8 10.8 12.0 89 1.0 N 19 32 10 17 1008.6 1008.6 1.6
13/07:30pm 13.9 11.3 11.9 88 1.1 N 17 24 9 13 1007.9 1007.9 1.4
13/07:00pm 14.3 11.8 12.3 88 1.1 NNW 17 33 9 18 1008.6 1008.6 1.4
13/06:30pm 14.5 12.4 12.5 88 1.1 NW 15 22 8 12 1007.5 1007.5 1.0
13/06:00pm 16.1 10.6 10.4 69 3.0 NNW 30 54 16 29 1007.9 1007.9 0.2
13/05:57pm 17.2 11.9 8.6 57 4.4 N 26 54 14 29 1007.7 1007.7 0.0
13/05:52pm 17.1 13.2 6.9 51 5.1 N 17 30 9 16 1007.1 1007.1 0.0
13/05:30pm 17.3 13.0 7.1 51 5.1 NE 19 24 10 13 1005.1 1005.1 0.0
13/05:00pm 18.1 13.7 6.6 47 5.7 NE 19 24 10 13 1004.9 1004.9 0.0
13/04:30pm 18.6 14.2 6.4 45 6.1 NE 19 24 10 13 1005.3 1005.3 0.0
13/04:00pm 18.9 14.5 6.7 45 6.1 NE 19 26 10 14 1005.6 1005.6 0.0

Other formats

Comma delimited format used in spreadsheet applications
http://www.bom.gov.au/fwo/IDW60801/IDW60801.95635.axf

JavaScript Object Notation format (JSON) in row-major order
http://www.bom.gov.au/fwo/IDW60801/IDW60801.95635.json

Data quality

Most of these data are generated automatically and are frequently updated. Quality checks on data are not normally performed. It is possible for incorrect values to appear. Refer to information at About Latest Weather Observations and please check the disclaimer before using these data.